Time,TemperatureF,DewpointF,PressureIn,WindDirection,WindDirectionDegrees,WindSpeedMPH,WindSpeedGustMPH,Humidity,HourlyPrecipIn,Conditions,Clouds,dailyrainin,SoftwareType,DateUTC
2013-02-18 00:14:00,56.7,46.0,29.93,South,186,8.0,16.0,68,0.00,,,0.00,weatherlink.com 1.10,2013-02-18 06:14:00,
2013-02-18 00:30:00,56.4,46.0,29.92,South,180,12.0,17.0,69,0.00,,,0.00,weatherlink.com 1.10,2013-02-18 06:30:00,
2013-02-18 00:45:00,56.2,47.0,29.92,SE,132,4.0,15.0,70,0.00,,,0.00,weatherlink.com 1.10,2013-02-18 06:45:00,
2013-02-18 01:00:00,56.0,47.0,29.91,SSE,168,10.0,17.0,71,0.00,,,0.00,weatherlink.com 1.10,2013-02-18 07:00:00,
2013-02-18 01:15:00,55.9,47.0,29.91,South,170,10.0,17.0,72,0.00,,,0.00,weatherlink.com 1.10,2013-02-18 07:15:00,
2013-02-18 01:30:00,56.3,47.0,29.90,SSE,167,11.0,16.0,72,0.00,,,0.00,weatherlink.com 1.10,2013-02-18 07:30:00,
2013-02-18 01:45:00,56.4,48.0,29.90,SSE,148,6.0,20.0,73,0.00,,,0.00,weatherlink.com 1.10,2013-02-18 07:45:00,
2013-02-18 02:00:00,56.4,48.0,29.89,SE,139,10.0,16.0,74,0.00,,,0.00,weatherlink.com 1.10,2013-02-18 08:00:00,
2013-02-18 02:15:00,56.5,48.0,29.89,South,191,7.0,19.0,74,0.00,,,0.00,weatherlink.com 1.10,2013-02-18 08:15:00,
2013-02-18 02:30:00,56.5,49.0,29.88,SSW,198,11.0,19.0,75,0.00,,,0.00,weatherlink.com 1.10,2013-02-18 08:30:00,
2013-02-18 02:45:00,56.6,49.0,29.87,SW,229,13.0,18.0,76,0.00,,,0.00,weatherlink.com 1.10,2013-02-18 08:45:00,
2013-02-18 03:00:00,57.0,50.0,29.87,South,190,6.0,16.0,76,0.00,,,0.00,weatherlink.com 1.10,2013-02-18 09:00:00,
2013-02-18 03:15:00,57.1,50.0,29.86,South,171,9.0,15.0,76,0.00,,,0.00,weatherlink.com 1.10,2013-02-18 09:15:00,
2013-02-18 03:30:00,57.4,50.0,29.86,SSE,165,12.0,17.0,76,0.00,,,0.00,weatherlink.com 1.10,2013-02-18 09:30:00,
2013-02-18 03:45:00,57.5,50.0,29.85,SE,138,14.0,18.0,77,0.00,,,0.00,weatherlink.com 1.10,2013-02-18 09:45:00,
2013-02-18 04:00:00,57.7,51.0,29.85,SSW,194,13.0,16.0,77,0.00,,,0.00,weatherlink.com 1.10,2013-02-18 10:00:00,
2013-02-18 04:15:00,58.0,51.0,29.84,SW,222,8.0,16.0,77,0.00,,,0.00,weatherlink.com 1.10,2013-02-18 10:15:00,
2013-02-18 04:30:00,58.0,51.0,29.83,South,174,8.0,20.0,78,0.00,,,0.00,weatherlink.com 1.10,2013-02-18 10:30:00,
2013-02-18 04:45:00,58.3,51.0,29.83,SSE,166,11.0,16.0,78,0.00,,,0.00,weatherlink.com 1.10,2013-02-18 10:45:00,
2013-02-18 05:00:00,58.6,52.0,29.83,SW,231,8.0,18.0,79,0.00,,,0.00,weatherlink.com 1.10,2013-02-18 11:00:00,
2013-02-18 05:15:00,58.9,52.0,29.82,SSW,212,10.0,19.0,79,0.00,,,0.00,weatherlink.com 1.10,2013-02-18 11:15:00,
2013-02-18 05:30:00,59.2,53.0,29.82,SSE,149,8.0,21.0,79,0.00,,,0.00,weatherlink.com 1.10,2013-02-18 11:30:00,
2013-02-18 05:45:00,59.1,53.0,29.82,SSW,198,7.0,22.0,79,0.00,,,0.00,weatherlink.com 1.10,2013-02-18 11:45:00,
2013-02-18 06:00:00,59.1,53.0,29.82,SSE,165,13.0,16.0,79,0.00,,,0.00,weatherlink.com 1.10,2013-02-18 12:00:00,
2013-02-18 06:15:00,59.1,53.0,29.81,SSW,212,6.0,18.0,80,0.00,,,0.00,weatherlink.com 1.10,2013-02-18 12:15:00,
2013-02-18 06:30:00,59.0,53.0,29.82,SSW,202,8.0,19.0,80,0.00,,,0.00,weatherlink.com 1.10,2013-02-18 12:30:00,
2013-02-18 06:45:00,58.9,53.0,29.81,ESE,114,6.0,18.0,81,0.00,,,0.00,weatherlink.com 1.10,2013-02-18 12:45:00,
2013-02-18 07:00:00,58.8,53.0,29.82,SW,219,13.0,16.0,81,0.00,,,0.00,weatherlink.com 1.10,2013-02-18 13:00:00,
2013-02-18 07:15:00,58.9,53.0,29.82,South,186,6.0,18.0,82,0.00,,,0.00,weatherlink.com 1.10,2013-02-18 13:15:00,
2013-02-18 07:30:00,58.8,53.0,29.82,WSW,256,12.0,18.0,82,0.00,,,0.00,weatherlink.com 1.10,2013-02-18 13:30:00,
2013-02-18 07:45:00,59.2,54.0,29.82,SSE,163,18.0,18.0,82,0.00,,,0.00,weatherlink.com 1.10,2013-02-18 13:45:00,
2013-02-18 08:01:00,59.9,54.0,29.82,SSW,193,7.0,21.0,81,0.00,,,0.00,weatherlink.com 1.10,2013-02-18 14:01:00,
2013-02-18 08:16:00,60.4,55.0,29.82,SSE,153,5.0,18.0,81,0.00,,,0.00,weatherlink.com 1.10,2013-02-18 14:16:00,
2013-02-18 08:31:00,61.0,55.0,29.82,SSE,163,9.0,19.0,80,0.00,,,0.00,weatherlink.com 1.10,2013-02-18 14:31:00,
2013-02-18 08:46:00,61.9,55.0,29.82,South,174,12.0,19.0,79,0.00,,,0.00,weatherlink.com 1.10,2013-02-18 14:46:00,
2013-02-18 09:01:00,62.8,56.0,29.83,SSW,195,9.0,17.0,78,0.00,,,0.00,weatherlink.com 1.10,2013-02-18 15:01:00,
2013-02-18 09:16:00,63.5,56.0,29.82,South,177,9.0,19.0,77,0.00,,,0.00,weatherlink.com 1.10,2013-02-18 15:16:00,
2013-02-18 09:31:00,64.5,56.0,29.83,South,176,9.0,20.0,75,0.00,,,0.00,weatherlink.com 1.10,2013-02-18 15:31:00,
2013-02-18 09:46:00,65.4,56.0,29.82,SW,217,14.0,24.0,72,0.00,,,0.00,weatherlink.com 1.10,2013-02-18 15:46:00,
2013-02-18 10:01:00,66.2,56.0,29.82,SW,229,13.0,28.0,70,0.00,,,0.00,weatherlink.com 1.10,2013-02-18 16:01:00,
2013-02-18 10:16:00,67.1,56.0,29.82,SW,219,16.0,26.0,68,0.00,,,0.00,weatherlink.com 1.10,2013-02-18 16:16:00,
2013-02-18 10:31:00,68.0,56.0,29.82,SW,231,20.0,25.0,65,0.00,,,0.00,weatherlink.com 1.10,2013-02-18 16:31:00,
2013-02-18 10:46:00,69.9,56.0,29.81,SW,228,15.0,22.0,61,0.00,,,0.00,weatherlink.com 1.10,2013-02-18 16:46:00,
2013-02-18 11:01:00,70.3,54.0,29.81,WSW,240,11.0,29.0,57,0.00,,,0.00,weatherlink.com 1.10,2013-02-18 17:01:00,
2013-02-18 11:16:00,71.9,54.0,29.81,SW,224,17.0,20.0,53,0.00,,,0.00,weatherlink.com 1.10,2013-02-18 17:16:00,
2013-02-18 11:31:00,72.4,53.0,29.81,WSW,239,17.0,23.0,51,0.00,,,0.00,weatherlink.com 1.10,2013-02-18 17:31:00,
2013-02-18 11:46:00,72.9,52.0,29.80,West,262,11.0,21.0,48,0.00,,,0.00,weatherlink.com 1.10,2013-02-18 17:46:00,
2013-02-18 12:01:00,73.4,49.0,29.80,West,262,14.0,23.0,43,0.00,,,0.00,weatherlink.com 1.10,2013-02-18 18:01:00,
2013-02-18 12:16:00,74.6,47.0,29.79,WSW,245,16.0,25.0,38,0.00,,,0.00,weatherlink.com 1.10,2013-02-18 18:16:00,
2013-02-18 12:31:00,75.0,47.0,29.79,SW,218,14.0,27.0,37,0.00,,,0.00,weatherlink.com 1.10,2013-02-18 18:31:00,
2013-02-18 12:46:00,76.3,45.0,29.78,WSW,243,13.0,21.0,33,0.00,,,0.00,weatherlink.com 1.10,2013-02-18 18:46:00,
2013-02-18 13:01:00,75.6,44.0,29.78,SSW,208,6.0,25.0,33,0.00,,,0.00,weatherlink.com 1.10,2013-02-18 19:01:00,
2013-02-18 13:17:00,76.8,44.0,29.77,SW,230,8.0,21.0,31,0.00,,,0.00,weatherlink.com 1.10,2013-02-18 19:17:00,
2013-02-18 13:32:00,76.8,43.0,29.77,WSW,239,12.0,18.0,30,0.00,,,0.00,weatherlink.com 1.10,2013-02-18 19:32:00,
2013-02-18 13:47:00,77.6,41.0,29.78,WNW,284,11.0,20.0,27,0.00,,,0.00,weatherlink.com 1.10,2013-02-18 19:47:00,
2013-02-18 14:02:00,77.0,40.0,29.77,WSW,257,10.0,22.0,27,0.00,,,0.00,weatherlink.com 1.10,2013-02-18 20:02:00,
2013-02-18 14:17:00,75.7,37.0,29.80,NW,317,7.0,23.0,25,0.00,,,0.00,weatherlink.com 1.10,2013-02-18 20:17:00,
2013-02-18 14:32:00,71.2,36.0,29.82,NW,311,15.0,23.0,28,0.00,,,0.00,weatherlink.com 1.10,2013-02-18 20:32:00,
2013-02-18 14:47:00,70.4,36.0,29.82,NNW,339,12.0,25.0,28,0.00,,,0.00,weatherlink.com 1.10,2013-02-18 20:47:00,
2013-02-18 15:02:00,69.4,34.0,29.83,NNW,333,9.0,25.0,27,0.00,,,0.00,weatherlink.com 1.10,2013-02-18 21:02:00,
2013-02-18 15:17:00,68.7,34.0,29.85,NNW,338,9.0,23.0,28,0.00,,,0.00,weatherlink.com 1.10,2013-02-18 21:17:00,
2013-02-18 15:32:00,67.5,34.0,29.86,NW,316,7.0,23.0,29,0.00,,,0.00,weatherlink.com 1.10,2013-02-18 21:32:00,
2013-02-18 15:47:00,66.9,34.0,29.87,NNW,328,21.0,26.0,30,0.00,,,0.00,weatherlink.com 1.10,2013-02-18 21:47:00,
2013-02-18 16:02:00,66.7,34.0,29.87,North,352,15.0,26.0,30,0.00,,,0.00,weatherlink.com 1.10,2013-02-18 22:02:00,
2013-02-18 16:17:00,66.4,35.0,29.88,NW,320,12.0,28.0,31,0.00,,,0.00,weatherlink.com 1.10,2013-02-18 22:17:00,
2013-02-18 16:32:00,65.4,35.0,29.89,WNW,302,17.0,26.0,32,0.00,,,0.00,weatherlink.com 1.10,2013-02-18 22:32:00,
2013-02-18 16:47:00,65.5,35.0,29.90,NNW,336,8.0,23.0,32,0.00,,,0.00,weatherlink.com 1.10,2013-02-18 22:47:00,
2013-02-18 17:02:00,65.0,34.0,29.91,West,278,6.0,19.0,32,0.00,,,0.00,weatherlink.com 1.10,2013-02-18 23:02:00,
2013-02-18 17:17:00,64.7,34.0,29.92,WNW,301,11.0,22.0,32,0.00,,,0.00,weatherlink.com 1.10,2013-02-18 23:17:00,
2013-02-18 17:32:00,64.1,34.0,29.93,NW,320,13.0,19.0,33,0.00,,,0.00,weatherlink.com 1.10,2013-02-18 23:32:00,
2013-02-18 17:47:00,63.5,34.0,29.94,NW,320,8.0,16.0,34,0.00,,,0.00,weatherlink.com 1.10,2013-02-18 23:47:00,
2013-02-18 18:02:00,63.0,35.0,29.95,NW,321,17.0,17.0,35,0.00,,,0.00,weatherlink.com 1.10,2013-02-19 00:02:00,
2013-02-18 18:17:00,62.0,35.0,29.96,NW,320,8.0,13.0,36,0.00,,,0.00,weatherlink.com 1.10,2013-02-19 00:17:00,
2013-02-18 18:32:00,61.6,34.0,29.98,NNW,335,8.0,18.0,36,0.00,,,0.00,weatherlink.com 1.10,2013-02-19 00:32:00,
2013-02-18 18:47:00,60.8,34.0,29.99,NW,326,11.0,17.0,37,0.00,,,0.00,weatherlink.com 1.10,2013-02-19 00:47:00,
2013-02-18 19:02:00,60.2,34.0,30.00,NNW,328,12.0,13.0,37,0.00,,,0.00,weatherlink.com 1.10,2013-02-19 01:02:00,
2013-02-18 19:17:00,59.7,34.0,30.01,NNW,329,7.0,13.0,38,0.00,,,0.00,weatherlink.com 1.10,2013-02-19 01:17:00,
2013-02-18 19:32:00,59.3,33.0,30.02,NW,319,9.0,17.0,38,0.00,,,0.00,weatherlink.com 1.10,2013-02-19 01:32:00,
2013-02-18 19:47:00,58.9,34.0,30.03,North,350,9.0,13.0,39,0.00,,,0.00,weatherlink.com 1.10,2013-02-19 01:47:00,
2013-02-18 20:02:00,58.4,33.0,30.04,NNW,330,8.0,15.0,39,0.00,,,0.00,weatherlink.com 1.10,2013-02-19 02:02:00,
2013-02-18 20:17:00,58.1,33.0,30.05,North,349,12.0,14.0,39,0.00,,,0.00,weatherlink.com 1.10,2013-02-19 02:17:00,
2013-02-18 20:32:00,57.8,33.0,30.06,NNW,342,4.0,12.0,39,0.00,,,0.00,weatherlink.com 1.10,2013-02-19 02:32:00,
2013-02-18 20:47:00,57.3,33.0,30.06,NW,320,5.0,11.0,40,0.00,,,0.00,weatherlink.com 1.10,2013-02-19 02:47:00,
2013-02-18 21:02:00,56.9,33.0,30.07,NW,325,7.0,10.0,40,0.00,,,0.00,weatherlink.com 1.10,2013-02-19 03:02:00,
2013-02-18 21:17:00,56.4,33.0,30.08,NNW,337,4.0,9.0,41,0.00,,,0.00,weatherlink.com 1.10,2013-02-19 03:17:00,
2013-02-18 21:32:00,56.1,32.0,30.09,NW,321,6.0,9.0,41,0.00,,,0.00,weatherlink.com 1.10,2013-02-19 03:32:00,
2013-02-18 21:47:00,55.7,32.0,30.11,NW,311,5.0,10.0,41,0.00,,,0.00,weatherlink.com 1.10,2013-02-19 03:47:00,
2013-02-18 22:02:00,55.3,32.0,30.12,NNW,328,4.0,12.0,41,0.00,,,0.00,weatherlink.com 1.10,2013-02-19 04:02:00,
2013-02-18 22:18:00,54.7,31.0,30.13,NNW,328,6.0,9.0,41,0.00,,,0.00,weatherlink.com 1.10,2013-02-19 04:18:00,
2013-02-18 22:33:00,54.3,31.0,30.14,NNW,336,3.0,8.0,41,0.00,,,0.00,weatherlink.com 1.10,2013-02-19 04:33:00,
2013-02-18 22:48:00,54.0,30.0,30.14,North,356,5.0,11.0,40,0.00,,,0.00,weatherlink.com 1.10,2013-02-19 04:48:00,
2013-02-18 23:03:00,53.8,30.0,30.14,NNE,25,12.0,13.0,40,0.00,,,0.00,weatherlink.com 1.10,2013-02-19 05:03:00,
2013-02-18 23:18:00,52.9,30.0,30.14,NE,44,7.0,10.0,42,0.00,,,0.00,weatherlink.com 1.10,2013-02-19 05:18:00,
2013-02-18 23:33:00,52.3,30.0,30.14,NNE,13,4.0,9.0,43,0.00,,,0.00,weatherlink.com 1.10,2013-02-19 05:33:00,
2013-02-18 23:48:00,52.0,30.0,30.15,NNW,337,2.0,8.0,43,0.00,,,0.00,weatherlink.com 1.10,2013-02-19 05:48:00,